Terminal Aerodrome Forecast
Issued by NWS Wilmington, NC

Home | Current Version | Previous Version | Text Only | Print | Product List | Glossary On
Versions: 1 2 3 4 5 6 7 8 9 10 11 12 13 14 15 16
000
FTUS42 KILM 292337
TAFFLO
TAF
KFLO 292337Z 3000/3024 04006KT P6SM SCT250
     FM300400 VRB02KT P6SM OVC250
     FM301200 07006KT P6SM VCSH BKN050 BKN250
     FM301800 13007KT P6SM VCSH BKN050 OVC150=

USA.gov is the U.S. government's official web portal to all federal, state and local government web resources and services.